Time;durP1;ratioP1;P1;durP2;ratioP2;P2;SDS_P1;SDS_P2;PMS_P1;PMS_P2;Temp;Humidity;BMP_temperature;BMP_pressure;BME280_temperature;BME280_humidity;BME280_pressure;Samples;Min_cycle;Max_cycle;Signal;HPM_P1;HPM_P2
2021/09/16 00:01:44;;;;;;;28.10;21.80;;;19.30;88.80;;;;;;4951385;28;20473;-42
2021/09/16 00:04:11;;;;;;;28.80;23.00;;;19.30;88.90;;;;;;4950646;28;20502;-42
2021/09/16 00:06:38;;;;;;;28.83;21.60;;;19.30;89.00;;;;;;4949586;28;20444;-42
2021/09/16 00:09:04;;;;;;;27.27;20.90;;;19.30;89.00;;;;;;4950765;28;20454;-42
2021/09/16 00:11:31;;;;;;;29.10;21.40;;;19.30;89.10;;;;;;4963747;28;20475;-42
2021/09/16 00:13:58;;;;;;;31.07;21.87;;;19.30;89.20;;;;;;4952703;28;20546;-42
2021/09/16 00:16:25;;;;;;;28.27;22.50;;;19.20;89.10;;;;;;4951532;28;20462;-42
2021/09/16 00:18:52;;;;;;;27.70;21.30;;;19.30;89.10;;;;;;4950298;28;20455;-42
2021/09/16 00:21:18;;;;;;;27.37;21.87;;;19.20;89.20;;;;;;4948430;28;20456;-42
2021/09/16 00:23:45;;;;;;;31.17;21.93;;;19.20;89.30;;;;;;4952054;28;20499;-42
2021/09/16 00:26:12;;;;;;;28.03;22.30;;;19.20;89.40;;;;;;4950499;28;20962;-42
2021/09/16 00:28:38;;;;;;;31.63;23.20;;;19.20;89.40;;;;;;4953730;28;20601;-42
2021/09/16 00:31:05;;;;;;;31.93;22.73;;;19.30;89.40;;;;;;4947273;28;20448;-42
2021/09/16 00:33:32;;;;;;;29.17;22.47;;;19.30;89.60;;;;;;4949365;28;20458;-42
2021/09/16 00:35:59;;;;;;;31.80;22.47;;;19.20;89.60;;;;;;4947448;28;20451;-42
2021/09/16 00:38:26;;;;;;;31.20;23.27;;;19.30;89.50;;;;;;4948092;28;20443;-42
2021/09/16 00:40:53;;;;;;;33.50;25.03;;;19.20;89.60;;;;;;4949604;28;20473;-42
2021/09/16 00:43:19;;;;;;;34.77;24.40;;;19.20;89.50;;;;;;4949950;28;20484;-42
2021/09/16 00:45:46;;;;;;;29.10;23.20;;;19.20;89.50;;;;;;4951756;28;20478;-42
2021/09/16 00:48:13;;;;;;;31.47;23.83;;;19.20;89.50;;;;;;4950670;29;20443;-42
2021/09/16 00:50:39;;;;;;;32.47;24.50;;;19.20;89.40;;;;;;4948445;28;20463;-42
2021/09/16 00:53:08;;;;;;;30.20;23.33;;;19.20;89.30;;;;;;4948272;28;21144;-42
2021/09/16 00:55:37;;;;;;;31.37;23.10;;;19.20;89.30;;;;;;4947641;28;20460;-43
2021/09/16 00:58:04;;;;;;;33.23;23.40;;;19.20;89.30;;;;;;4951458;28;20975;-42
2021/09/16 01:00:31;;;;;;;34.90;25.07;;;19.20;89.30;;;;;;4950221;28;20477;-42
2021/09/16 01:02:58;;;;;;;33.47;22.97;;;19.20;89.30;;;;;;4949019;28;20490;-42
2021/09/16 01:05:25;;;;;;;33.07;23.23;;;19.20;89.30;;;;;;4964902;28;20464;-42
2021/09/16 01:07:52;;;;;;;33.73;26.07;;;19.20;89.40;;;;;;4949099;28;20867;-42
2021/09/16 01:10:19;;;;;;;35.13;25.33;;;19.10;89.50;;;;;;4951058;28;20443;-42
2021/09/16 01:12:46;;;;;;;32.83;25.57;;;19.20;89.40;;;;;;4948089;28;20724;-42
2021/09/16 01:15:13;;;;;;;35.00;23.63;;;19.20;89.40;;;;;;4946846;28;20911;-42
2021/09/16 01:17:40;;;;;;;32.37;24.60;;;19.20;89.40;;;;;;4950618;28;20851;-42
2021/09/16 01:20:07;;;;;;;35.20;25.70;;;19.20;89.40;;;;;;4947717;28;20463;-42
2021/09/16 01:22:35;;;;;;;33.63;24.17;;;19.20;89.40;;;;;;4947222;28;20804;-42
2021/09/16 01:25:04;;;;;;;33.23;23.00;;;19.10;89.40;;;;;;4950094;28;20955;-42
2021/09/16 01:27:31;;;;;;;33.83;23.63;;;19.10;89.40;;;;;;4947267;28;20455;-42
2021/09/16 01:29:58;;;;;;;38.00;25.33;;;19.10;89.40;;;;;;4952639;28;20506;-42
2021/09/16 01:32:25;;;;;;;34.20;24.40;;;19.10;89.40;;;;;;4963777;28;20869;-42
2021/09/16 01:34:52;;;;;;;32.50;23.37;;;19.10;89.40;;;;;;4950534;28;20462;-42
2021/09/16 01:37:19;;;;;;;40.63;25.73;;;19.20;88.60;;;;;;4949248;28;20451;-41
2021/09/16 01:39:45;;;;;;;29.90;22.97;;;19.20;88.40;;;;;;4947053;28;20487;-42
2021/09/16 01:42:12;;;;;;;31.73;22.50;;;19.20;88.10;;;;;;4946181;28;20462;-42
2021/09/16 01:44:39;;;;;;;35.40;24.53;;;19.20;88.00;;;;;;4950539;28;20494;-42
2021/09/16 01:47:06;;;;;;;34.93;25.57;;;19.10;88.20;;;;;;4948533;28;20462;-42
2021/09/16 01:49:33;;;;;;;31.57;23.80;;;19.10;88.30;;;;;;4948573;29;20813;-42
2021/09/16 01:51:59;;;;;;;33.07;24.07;;;19.10;88.40;;;;;;4945720;28;20965;-42
2021/09/16 01:54:26;;;;;;;37.10;24.20;;;19.00;88.50;;;;;;4946418;28;20514;-42
2021/09/16 01:56:53;;;;;;;36.87;25.20;;;19.00;88.60;;;;;;4944983;28;20977;-42
2021/09/16 01:59:19;;;;;;;32.63;23.40;;;19.00;88.70;;;;;;4950513;28;20463;-42
2021/09/16 02:01:46;;;;;;;32.83;23.70;;;19.00;88.80;;;;;;4945756;28;20466;-42
2021/09/16 02:04:13;;;;;;;33.23;23.27;;;19.00;89.00;;;;;;4945547;28;21067;-42
2021/09/16 02:06:40;;;;;;;33.67;24.37;;;19.00;89.10;;;;;;4947367;28;20447;-42
2021/09/16 02:09:07;;;;;;;36.00;24.53;;;19.00;89.10;;;;;;4947003;28;20456;-42
2021/09/16 02:11:33;;;;;;;36.40;23.80;;;19.00;89.20;;;;;;4946897;28;20472;-42
2021/09/16 02:14:00;;;;;;;33.33;24.97;;;19.00;89.30;;;;;;4948383;28;20506;-42
2021/09/16 02:16:27;;;;;;;32.43;23.80;;;19.00;89.40;;;;;;4961869;28;20972;-42
2021/09/16 02:18:54;;;;;;;31.90;23.23;;;19.00;89.40;;;;;;4948440;28;20447;-42
2021/09/16 02:21:20;;;;;;;31.50;23.97;;;19.00;89.40;;;;;;4948623;28;20811;-42
2021/09/16 02:23:47;;;;;;;27.80;21.83;;;19.00;89.50;;;;;;4934450;29;20487;-42
2021/09/16 02:26:14;;;;;;;24.53;18.17;;;19.00;89.00;;;;;;4946264;28;20455;-42
2021/09/16 02:28:40;;;;;;;25.03;17.50;;;19.00;88.90;;;;;;4949237;28;20459;-42
2021/09/16 02:31:07;;;;;;;23.40;17.50;;;19.00;88.90;;;;;;4949021;28;20451;-42
2021/09/16 02:33:34;;;;;;;21.03;17.27;;;19.00;88.80;;;;;;4944060;28;20542;-42
2021/09/16 02:36:01;;;;;;;24.67;18.57;;;19.00;88.80;;;;;;4950659;28;20474;-45
2021/09/16 02:38:28;;;;;;;21.17;16.67;;;18.90;88.70;;;;;;4949600;28;20439;-45
2021/09/16 02:40:55;;;;;;;22.70;16.83;;;18.90;88.70;;;;;;4951279;28;20457;-45
2021/09/16 02:43:22;;;;;;;20.80;16.73;;;18.90;88.70;;;;;;4950846;28;20491;-45
2021/09/16 02:45:48;;;;;;;26.00;17.53;;;18.90;88.70;;;;;;4950196;28;20633;-45
2021/09/16 02:48:15;;;;;;;28.50;18.90;;;18.80;88.80;;;;;;4951256;28;20478;-45
2021/09/16 02:50:42;;;;;;;24.47;18.67;;;18.80;88.90;;;;;;4948673;28;20443;-45
2021/09/16 02:53:09;;;;;;;26.17;19.80;;;18.80;89.00;;;;;;4948910;28;20547;-45
2021/09/16 02:55:35;;;;;;;26.63;19.00;;;18.90;89.10;;;;;;4947493;29;20452;-45
2021/09/16 02:58:02;;;;;;;36.90;20.37;;;18.90;89.00;;;;;;4948105;28;20466;-46
2021/09/16 03:00:29;;;;;;;26.03;19.10;;;18.80;89.00;;;;;;4946344;28;20447;-46
2021/09/16 03:02:56;;;;;;;27.60;18.07;;;18.80;89.20;;;;;;4957213;28;20793;-46
2021/09/16 03:05:22;;;;;;;28.63;19.00;;;18.80;89.10;;;;;;4944435;28;20486;-46
2021/09/16 03:07:50;;;;;;;25.27;19.37;;;18.80;89.00;;;;;;4949968;28;20835;-46
2021/09/16 03:10:16;;;;;;;24.97;18.60;;;18.70;89.00;;;;;;4946297;28;20574;-46
2021/09/16 03:12:43;;;;;;;22.70;18.13;;;18.70;89.10;;;;;;4950119;28;20470;-45
2021/09/16 03:15:11;;;;;;;25.60;18.73;;;18.70;89.20;;;;;;4949900;28;20463;-46
2021/09/16 03:17:37;;;;;;;24.97;18.87;;;18.80;89.20;;;;;;4946133;28;20443;-46
2021/09/16 03:20:05;;;;;;;28.33;19.53;;;18.80;89.20;;;;;;4944788;28;20479;-46
2021/09/16 03:22:31;;;;;;;25.00;18.43;;;18.80;89.10;;;;;;4948013;28;20479;-46
2021/09/16 03:24:58;;;;;;;23.80;17.13;;;18.70;89.20;;;;;;4946065;28;20783;-46
2021/09/16 03:27:25;;;;;;;22.73;17.07;;;18.70;89.20;;;;;;4946904;28;20456;-46
2021/09/16 03:29:52;;;;;;;24.40;18.20;;;18.70;89.30;;;;;;4949965;28;20824;-45
2021/09/16 03:32:19;;;;;;;20.63;16.33;;;18.70;89.40;;;;;;4947711;28;20462;-46
2021/09/16 03:34:46;;;;;;;19.20;16.07;;;18.70;89.30;;;;;;4947296;28;20460;-46
2021/09/16 03:37:12;;;;;;;20.97;16.23;;;18.70;89.20;;;;;;4949505;28;20470;-46
2021/09/16 03:39:39;;;;;;;21.10;16.10;;;18.70;89.20;;;;;;4951439;28;20455;-46
2021/09/16 03:42:06;;;;;;;18.07;15.27;;;18.70;89.00;;;;;;4953448;28;20448;-46
2021/09/16 03:44:35;;;;;;;22.37;16.83;;;18.70;89.10;;;;;;4948301;28;20495;-46
2021/09/16 03:47:04;;;;;;;22.47;16.23;;;18.70;89.10;;;;;;4953850;28;20443;-46
2021/09/16 03:49:35;;;;;;;22.10;17.07;;;18.60;89.30;;;;;;4952626;29;20466;-46
2021/09/16 03:52:02;;;;;;;20.30;16.07;;;18.60;89.40;;;;;;4949563;28;20466;-46
2021/09/16 03:54:29;;;;;;;21.77;14.63;;;18.60;89.40;;;;;;4952518;28;20459;-46
2021/09/16 03:56:56;;;;;;;20.60;15.07;;;18.60;89.50;;;;;;4951036;28;20466;-46
2021/09/16 03:59:22;;;;;;;20.03;15.30;;;18.60;89.50;;;;;;4952852;28;20481;-46
2021/09/16 04:01:49;;;;;;;19.57;15.10;;;18.60;89.50;;;;;;4952726;28;20488;-46
2021/09/16 04:04:16;;;;;;;16.83;14.50;;;18.60;89.50;;;;;;4947749;28;20491;-46
2021/09/16 04:06:43;;;;;;;20.67;15.63;;;18.60;89.50;;;;;;4951209;28;20455;-46
2021/09/16 04:09:09;;;;;;;22.80;14.70;;;18.60;89.30;;;;;;4947991;28;20972;-46
2021/09/16 04:11:36;;;;;;;18.17;15.90;;;18.60;89.20;;;;;;4954480;28;20446;-46
2021/09/16 04:14:03;;;;;;;20.90;15.60;;;18.60;89.20;;;;;;4951204;28;20474;-46
2021/09/16 04:16:30;;;;;;;19.87;14.60;;;18.60;89.20;;;;;;4951956;28;20462;-46
2021/09/16 04:18:57;;;;;;;19.40;14.23;;;18.50;89.20;;;;;;4951497;28;20452;-46
2021/09/16 04:21:24;;;;;;;17.40;15.17;;;18.50;89.30;;;;;;4951574;28;20992;-46
2021/09/16 04:23:51;;;;;;;20.37;15.33;;;18.50;89.20;;;;;;4952351;28;20495;-46
2021/09/16 04:26:18;;;;;;;22.63;14.90;;;18.50;89.30;;;;;;4947856;28;20471;-46
2021/09/16 04:28:44;;;;;;;23.20;15.67;;;18.50;89.30;;;;;;4945978;28;20444;-46
2021/09/16 04:31:11;;;;;;;22.43;15.30;;;18.50;89.30;;;;;;4949752;28;20451;-46
2021/09/16 04:33:38;;;;;;;17.97;13.97;;;18.50;89.30;;;;;;4953784;28;20449;-46
2021/09/16 04:36:04;;;;;;;17.60;14.47;;;18.50;89.30;;;;;;4952249;28;20464;-46
2021/09/16 04:38:31;;;;;;;19.10;14.83;;;18.50;89.40;;;;;;4948729;28;20464;-45
2021/09/16 04:40:58;;;;;;;17.63;14.40;;;18.50;89.30;;;;;;4952946;28;20486;-46
2021/09/16 04:43:25;;;;;;;16.03;13.73;;;18.40;89.30;;;;;;4949876;28;20539;-46
2021/09/16 04:45:51;;;;;;;17.20;13.37;;;18.40;89.20;;;;;;4949598;28;20538;-46
2021/09/16 04:48:18;;;;;;;17.10;13.53;;;18.40;89.10;;;;;;4947877;28;20796;-46
2021/09/16 04:50:45;;;;;;;16.07;14.37;;;18.40;89.10;;;;;;4949096;29;20460;-46
2021/09/16 04:53:11;;;;;;;17.83;13.93;;;18.40;89.10;;;;;;4952209;28;20463;-46
2021/09/16 04:55:38;;;;;;;14.80;12.80;;;18.40;88.90;;;;;;4955417;28;20474;-46
2021/09/16 04:58:05;;;;;;;18.20;14.00;;;18.30;89.00;;;;;;4951825;28;20649;-46
2021/09/16 05:00:31;;;;;;;14.83;13.23;;;18.40;88.80;;;;;;4949646;28;20536;-46
2021/09/16 05:02:58;;;;;;;17.77;13.07;;;18.40;88.70;;;;;;4951426;28;20452;-46
2021/09/16 05:05:25;;;;;;;13.80;12.37;;;18.30;88.80;;;;;;4950089;28;20502;-46
2021/09/16 05:07:52;;;;;;;17.70;13.43;;;18.30;88.80;;;;;;4951354;28;20524;-46
2021/09/16 05:10:18;;;;;;;17.87;12.97;;;18.30;88.60;;;;;;4949472;28;20475;-46
2021/09/16 05:12:45;;;;;;;15.13;12.30;;;18.30;88.40;;;;;;4953702;28;20443;-45
2021/09/16 05:15:12;;;;;;;16.43;12.97;;;18.30;87.80;;;;;;4951190;28;20542;-46
2021/09/16 05:17:38;;;;;;;14.73;12.50;;;18.30;87.10;;;;;;4947112;28;20460;-46
2021/09/16 05:20:06;;;;;;;18.37;13.03;;;18.30;87.10;;;;;;4949462;28;20456;-46
2021/09/16 05:22:33;;;;;;;18.50;14.27;;;18.20;87.10;;;;;;4951438;28;21032;-46
2021/09/16 05:24:59;;;;;;;17.00;13.03;;;18.20;87.30;;;;;;4949962;28;21005;-46
2021/09/16 05:27:26;;;;;;;19.73;13.37;;;18.20;87.40;;;;;;4948760;28;20459;-46
2021/09/16 05:29:53;;;;;;;14.83;12.00;;;18.20;87.20;;;;;;4950918;28;21140;-46
2021/09/16 05:32:19;;;;;;;16.87;13.33;;;18.20;87.20;;;;;;4949259;28;20463;-46
2021/09/16 05:34:46;;;;;;;14.47;12.17;;;18.20;87.30;;;;;;4951971;28;20817;-46
2021/09/16 05:37:13;;;;;;;15.70;12.80;;;18.10;87.50;;;;;;4951153;28;20451;-46
2021/09/16 05:39:40;;;;;;;16.93;11.87;;;18.10;87.70;;;;;;4955558;28;20822;-46
2021/09/16 05:42:07;;;;;;;16.33;13.20;;;18.20;87.70;;;;;;4954352;28;20463;-46
2021/09/16 05:44:33;;;;;;;15.37;12.90;;;18.20;87.70;;;;;;4952873;28;20495;-46
2021/09/16 05:47:00;;;;;;;16.30;13.40;;;18.10;87.80;;;;;;4949481;28;20458;-46
2021/09/16 05:49:27;;;;;;;16.60;13.37;;;18.20;87.60;;;;;;4953368;28;20462;-46
2021/09/16 05:51:54;;;;;;;15.63;12.40;;;18.20;87.40;;;;;;4948957;28;20466;-46
2021/09/16 05:54:21;;;;;;;17.80;13.20;;;18.20;86.50;;;;;;4948948;28;20464;-46
2021/09/16 05:56:48;;;;;;;16.47;11.53;;;18.10;85.90;;;;;;4947635;28;20695;-46
2021/09/16 05:59:15;;;;;;;15.50;12.00;;;18.20;85.30;;;;;;4949072;28;20466;-46
2021/09/16 06:01:42;;;;;;;17.53;12.63;;;18.10;85.00;;;;;;4950385;28;20586;-46
2021/09/16 06:04:09;;;;;;;14.47;12.50;;;18.10;85.30;;;;;;4949347;28;20498;-46
2021/09/16 06:06:36;;;;;;;15.97;11.70;;;18.10;85.40;;;;;;4953284;28;20454;-46
2021/09/16 06:09:03;;;;;;;15.50;11.27;;;18.10;84.60;;;;;;4949570;29;20454;-46
2021/09/16 06:11:30;;;;;;;16.97;11.40;;;18.10;84.60;;;;;;4947422;28;21025;-46
2021/09/16 06:13:56;;;;;;;14.00;11.33;;;18.10;83.50;;;;;;4953048;28;20471;-45
2021/09/16 06:16:23;;;;;;;13.90;11.00;;;18.10;81.80;;;;;;4951034;28;20468;-46
2021/09/16 06:18:51;;;;;;;12.60;10.80;;;18.10;82.20;;;;;;4951145;28;20458;-46
2021/09/16 06:21:17;;;;;;;16.27;11.07;;;18.10;81.90;;;;;;4952699;28;20455;-46
2021/09/16 06:23:47;;;;;;;17.73;11.63;;;18.10;82.10;;;;;;4950644;28;20471;-46
2021/09/16 06:26:14;;;;;;;17.23;11.87;;;18.00;82.60;;;;;;4947923;28;20579;-46
2021/09/16 06:28:41;;;;;;;18.00;11.70;;;18.00;81.70;;;;;;4951726;28;20471;-46
2021/09/16 06:31:08;;;;;;;13.50;9.77;;;18.00;82.80;;;;;;4953219;28;21097;-46
2021/09/16 06:33:34;;;;;;;13.53;10.27;;;18.00;81.50;;;;;;4953480;28;20778;-46
2021/09/16 06:36:02;;;;;;;10.87;9.77;;;17.90;82.10;;;;;;4946915;28;20457;-46
2021/09/16 06:38:28;;;;;;;11.90;9.93;;;17.90;81.40;;;;;;4948231;28;20953;-46
2021/09/16 06:40:55;;;;;;;12.20;9.50;;;17.90;81.00;;;;;;4948463;28;21017;-46
2021/09/16 06:43:22;;;;;;;10.00;8.63;;;17.90;80.70;;;;;;4951632;28;20455;-46
2021/09/16 06:45:49;;;;;;;11.93;8.10;;;17.80;80.10;;;;;;4951136;28;20518;-46
2021/09/16 06:48:15;;;;;;;11.30;8.00;;;17.80;79.50;;;;;;4952755;28;20467;-47
2021/09/16 06:50:43;;;;;;;10.73;8.97;;;17.80;80.20;;;;;;4952131;28;20469;-46
2021/09/16 06:53:10;;;;;;;17.43;8.70;;;17.80;80.30;;;;;;4953743;28;20444;-46
2021/09/16 06:55:36;;;;;;;11.50;8.10;;;17.80;80.50;;;;;;4953653;28;20452;-46
2021/09/16 06:58:03;;;;;;;13.47;7.47;;;17.80;79.50;;;;;;4950545;28;20467;-46
2021/09/16 07:00:30;;;;;;;9.80;7.93;;;17.70;79.70;;;;;;4951471;28;20459;-46
2021/09/16 07:02:57;;;;;;;7.97;6.27;;;17.70;80.10;;;;;;4951113;28;20498;-47
2021/09/16 07:05:24;;;;;;;9.70;6.77;;;17.70;80.40;;;;;;4950027;28;20497;-47
2021/09/16 07:07:50;;;;;;;8.23;6.90;;;17.80;78.90;;;;;;4951300;28;20811;-46
2021/09/16 07:10:17;;;;;;;9.23;7.30;;;17.80;78.70;;;;;;4948551;28;20527;-46
2021/09/16 07:12:44;;;;;;;12.97;7.57;;;17.90;78.90;;;;;;4957367;28;20473;-46
2021/09/16 07:15:11;;;;;;;8.30;5.97;;;17.90;79.40;;;;;;4955816;28;20459;-46
2021/09/16 07:17:38;;;;;;;7.93;7.03;;;18.10;77.80;;;;;;4955796;28;20451;-46
2021/09/16 07:20:05;;;;;;;6.90;6.17;;;18.20;77.30;;;;;;4954124;28;20463;-46
2021/09/16 07:22:32;;;;;;;7.73;5.67;;;18.20;77.20;;;;;;4955441;28;20463;-46
2021/09/16 07:24:59;;;;;;;6.13;5.40;;;18.30;76.50;;;;;;4953253;28;20483;-46
2021/09/16 07:27:26;;;;;;;8.67;5.97;;;18.30;76.60;;;;;;4952893;28;20538;-46
2021/09/16 07:29:53;;;;;;;7.90;6.20;;;18.40;75.80;;;;;;4952169;28;20824;-46
2021/09/16 07:32:19;;;;;;;6.60;5.90;;;18.40;75.60;;;;;;4952787;28;20455;-47
2021/09/16 07:34:46;;;;;;;8.13;6.10;;;18.40;76.10;;;;;;4950644;28;20949;-46
2021/09/16 07:37:13;;;;;;;8.40;6.20;;;18.40;75.00;;;;;;4949857;28;20469;-46
2021/09/16 07:39:40;;;;;;;6.10;4.83;;;18.40;75.60;;;;;;4953851;28;20467;-46
2021/09/16 07:42:07;;;;;;;4.80;4.37;;;18.40;76.00;;;;;;4951090;28;20452;-46
2021/09/16 07:44:34;;;;;;;6.33;4.90;;;18.40;74.00;;;;;;4951180;28;20466;-46
2021/09/16 07:47:01;;;;;;;11.17;5.13;;;18.40;74.70;;;;;;4953823;28;20493;-46
2021/09/16 07:49:28;;;;;;;5.90;4.37;;;18.50;73.70;;;;;;4949110;28;20450;-46
2021/09/16 07:51:55;;;;;;;7.83;4.60;;;18.50;74.20;;;;;;4954912;28;20489;-46
2021/09/16 07:54:22;;;;;;;5.60;4.50;;;18.60;73.30;;;;;;4952515;28;20455;-46
2021/09/16 07:56:49;;;;;;;5.90;4.30;;;18.70;73.40;;;;;;4953702;28;20463;-46
2021/09/16 07:59:16;;;;;;;5.77;4.13;;;18.70;73.50;;;;;;4950325;28;20451;-47
2021/09/16 08:01:43;;;;;;;5.50;3.43;;;18.80;72.80;;;;;;4954303;28;20819;-46
2021/09/16 08:04:10;;;;;;;3.00;2.70;;;19.00;72.80;;;;;;4952869;28;20826;-46
2021/09/16 08:06:37;;;;;;;3.27;2.53;;;19.10;70.80;;;;;;4953361;28;20486;-46
2021/09/16 08:09:04;;;;;;;4.27;2.47;;;19.30;69.50;;;;;;4951003;28;20938;-46
2021/09/16 08:11:30;;;;;;;5.80;2.97;;;19.40;68.30;;;;;;4952076;28;20451;-46
2021/09/16 08:13:57;;;;;;;4.90;2.40;;;19.60;68.90;;;;;;4953177;28;20550;-46
2021/09/16 08:16:24;;;;;;;3.03;2.50;;;19.80;68.60;;;;;;4951034;28;21048;-46
2021/09/16 08:18:51;;;;;;;3.60;3.10;;;20.00;68.00;;;;;;4951189;28;20468;-46
2021/09/16 08:21:18;;;;;;;3.60;3.30;;;20.10;67.20;;;;;;4944501;28;20451;-46
2021/09/16 08:23:45;;;;;;;6.00;3.07;;;20.10;65.90;;;;;;4956343;28;20465;-46
2021/09/16 08:26:12;;;;;;;4.43;2.70;;;20.10;66.70;;;;;;4951371;28;20491;-46
2021/09/16 08:28:39;;;;;;;4.17;2.60;;;20.10;66.90;;;;;;4968694;28;20454;-46
2021/09/16 08:31:06;;;;;;;4.40;3.70;;;20.10;67.00;;;;;;4950620;28;20463;-46
2021/09/16 08:33:34;;;;;;;4.73;3.93;;;20.10;67.30;;;;;;4951031;28;20485;-47
2021/09/16 08:36:02;;;;;;;4.90;4.40;;;20.10;66.40;;;;;;4947913;28;20475;-46
2021/09/16 08:38:28;;;;;;;4.40;4.07;;;20.20;66.60;;;;;;4955437;28;20465;-46
2021/09/16 08:40:55;;;;;;;3.80;3.50;;;20.40;65.00;;;;;;4951181;28;20452;-46
2021/09/16 08:43:28;;;;;;;4.57;3.67;;;20.60;64.40;;;;;;4951951;28;20458;-46
2021/09/16 08:45:55;;;;;;;4.70;3.93;;;20.80;63.30;;;;;;4964280;28;20522;-46
2021/09/16 08:48:22;;;;;;;4.03;3.67;;;21.00;62.70;;;;;;4954353;28;20459;-46
2021/09/16 08:50:49;;;;;;;4.40;4.00;;;21.20;62.60;;;;;;4953073;29;20979;-46
2021/09/16 08:53:24;;;;;;;3.40;3.10;;;21.30;62.50;;;;;;4953771;28;20819;-46
2021/09/16 08:55:52;;;;;;;3.20;2.53;;;21.10;61.90;;;;;;4955747;28;20457;-46
2021/09/16 08:58:22;;;;;;;3.20;3.00;;;21.10;63.10;;;;;;4952722;28;20458;-46
2021/09/16 09:00:49;;;;;;;2.83;2.63;;;21.20;61.30;;;;;;4955835;28;20462;-46
2021/09/16 09:03:16;;;;;;;4.57;2.97;;;21.30;60.60;;;;;;4953976;28;20825;-46
2021/09/16 09:05:44;;;;;;;2.73;2.47;;;21.40;61.30;;;;;;4954182;28;20495;-46
2021/09/16 09:08:11;;;;;;;4.27;2.93;;;21.30;60.80;;;;;;4953938;28;20448;-46
2021/09/16 09:10:41;;;;;;;3.73;3.33;;;21.30;61.10;;;;;;4952079;28;20479;-46
2021/09/16 09:13:28;;;;;;;3.50;3.03;;;21.20;61.20;;;;;;4953015;29;20852;-46
2021/09/16 09:16:00;;;;;;;3.83;3.53;;;21.10;61.00;;;;;;4954342;28;21003;-46
2021/09/16 09:18:43;;;;;;;3.70;3.40;;;20.90;61.80;;;;;;4951131;28;20460;-46
2021/09/16 09:21:12;;;;;;;4.10;3.10;;;20.70;62.20;;;;;;4950186;28;20569;-47
2021/09/16 09:23:51;;;;;;;3.10;2.80;;;20.50;63.50;;;;;;4952001;28;21024;-46
2021/09/16 09:26:26;;;;;;;3.07;2.40;;;20.40;64.00;;;;;;4949587;28;20513;-46
2021/09/16 09:29:15;;;;;;;3.00;2.57;;;20.30;64.30;;;;;;4954140;28;20773;-46
2021/09/16 09:31:55;;;;;;;2.40;2.20;;;20.30;64.20;;;;;;4954488;28;20443;-47
2021/09/16 09:34:34;;;;;;;3.43;2.30;;;20.30;63.70;;;;;;4949298;28;20457;-46
2021/09/16 09:37:11;;;;;;;3.50;2.60;;;20.40;63.00;;;;;;4956078;28;20463;-46
2021/09/16 09:39:40;;;;;;;4.57;2.50;;;20.50;62.40;;;;;;4950263;28;20459;-46
2021/09/16 09:42:23;;;;;;;2.23;2.03;;;20.50;62.10;;;;;;4951555;28;20464;-46
2021/09/16 09:45:08;;;;;;;2.10;2.00;;;20.60;62.40;;;;;;4949162;28;20455;-46
2021/09/16 09:47:43;;;;;;;3.33;3.00;;;20.50;62.70;;;;;;4947216;28;20447;-46
2021/09/16 09:50:25;;;;;;;2.73;2.33;;;20.40;63.50;;;;;;4949626;29;20936;-46
2021/09/16 09:53:09;;;;;;;2.63;1.93;;;20.40;63.60;;;;;;4948591;28;20502;-46
2021/09/16 09:55:40;;;;;;;2.67;2.27;;;20.40;63.80;;;;;;4952769;28;20474;-46
2021/09/16 09:58:07;;;;;;;2.60;2.13;;;20.30;63.30;;;;;;4949822;28;20473;-46
2021/09/16 10:00:34;;;;;;;7.07;2.87;;;20.30;63.80;;;;;;4953043;28;20944;-46
2021/09/16 10:03:01;;;;;;;8.10;2.50;;;20.30;63.30;;;;;;4950251;28;20988;-46
2021/09/16 10:05:30;;;;;;;5.33;2.93;;;20.30;63.00;;;;;;4948454;28;20543;-46
2021/09/16 10:08:09;;;;;;;3.33;3.03;;;20.30;63.30;;;;;;4950942;28;20483;-46
2021/09/16 10:10:44;;;;;;;2.80;2.50;;;20.20;64.90;;;;;;4946788;28;20967;-46
2021/09/16 10:13:20;;;;;;;3.57;3.20;;;20.30;63.90;;;;;;4950259;28;20556;-45
2021/09/16 10:15:49;;;;;;;3.77;3.20;;;20.50;63.20;;;;;;4951088;28;20781;-46
2021/09/16 10:18:16;;;;;;;2.70;2.50;;;20.50;63.10;;;;;;4947456;29;20451;-46
2021/09/16 10:20:45;;;;;;;3.40;3.07;;;20.50;64.50;;;;;;4949520;28;20458;-46
2021/09/16 10:23:13;;;;;;;3.50;3.20;;;20.50;63.90;;;;;;4951850;28;20459;-46
2021/09/16 10:25:45;;;;;;;4.20;3.80;;;20.50;63.20;;;;;;4952528;28;20483;-46
2021/09/16 10:28:14;;;;;;;3.33;2.90;;;20.40;63.90;;;;;;4952120;28;20455;-46
2021/09/16 10:30:45;;;;;;;3.20;2.87;;;20.40;64.30;;;;;;4951071;28;20460;-46
2021/09/16 10:33:27;;;;;;;3.37;3.03;;;20.40;63.60;;;;;;4949350;28;20463;-46
2021/09/16 10:35:56;;;;;;;5.43;2.93;;;20.50;63.00;;;;;;4948488;28;20470;-45
2021/09/16 10:38:28;;;;;;;5.90;3.53;;;20.50;63.60;;;;;;4948002;28;20481;-46
2021/09/16 10:41:09;;;;;;;3.23;2.90;;;20.40;62.70;;;;;;4948952;28;20469;-46
2021/09/16 10:43:37;;;;;;;4.13;3.50;;;20.30;63.00;;;;;;4946399;28;20482;-46
2021/09/16 10:46:37;;;;;;;3.50;3.20;;;20.20;63.90;;;;;;4946621;28;20876;-46
2021/09/16 10:49:19;;;;;;;3.83;3.53;;;20.10;64.30;;;;;;4950729;28;20956;-46
2021/09/16 10:51:48;;;;;;;3.37;3.10;;;20.00;64.90;;;;;;4943464;28;20493;-46
2021/09/16 10:54:24;;;;;;;5.77;3.70;;;20.00;65.10;;;;;;4950012;28;20451;-46
2021/09/16 10:57:07;;;;;;;3.80;3.50;;;20.00;65.10;;;;;;4946206;28;20639;-46
2021/09/16 11:00:18;;;;;;;6.00;3.80;;;20.00;64.70;;;;;;4946309;28;20465;-46
2021/09/16 11:02:48;;;;;;;3.90;3.60;;;20.00;64.70;;;;;;4933080;29;20823;-46
2021/09/16 11:05:20;;;;;;;4.47;3.40;;;20.00;64.90;;;;;;4949433;28;20495;-46
2021/09/16 11:07:49;;;;;;;6.03;3.07;;;20.00;65.00;;;;;;4949125;28;20443;-46
2021/09/16 11:10:16;;;;;;;3.73;3.43;;;20.00;64.50;;;;;;4947685;29;20869;-46
2021/09/16 11:13:04;;;;;;;4.60;2.90;;;20.00;64.80;;;;;;4950518;28;20478;-45
2021/09/16 11:15:34;;;;;;;3.70;3.40;;;19.90;64.90;;;;;;4948039;28;20483;-46
2021/09/16 11:18:16;;;;;;;2.80;2.60;;;20.00;64.70;;;;;;4950535;28;20466;-46
2021/09/16 11:20:45;;;;;;;3.27;3.07;;;20.00;64.80;;;;;;4942654;29;20985;-46
2021/09/16 11:23:14;;;;;;;3.67;3.37;;;20.00;64.20;;;;;;4948918;28;20463;-46
2021/09/16 11:25:44;;;;;;;3.10;2.80;;;20.00;64.30;;;;;;4949419;28;20520;-46
2021/09/16 11:28:12;;;;;;;3.43;2.70;;;19.90;64.80;;;;;;4948132;28;20451;-46
2021/09/16 11:30:41;;;;;;;4.53;3.07;;;20.00;64.40;;;;;;4951763;28;20470;-46
2021/09/16 11:33:17;;;;;;;3.43;2.97;;;19.90;64.20;;;;;;4951465;28;20463;-46
2021/09/16 11:35:45;;;;;;;3.50;3.20;;;19.90;65.00;;;;;;4948052;28;20458;-46
2021/09/16 11:38:13;;;;;;;3.93;3.47;;;19.80;65.80;;;;;;4951699;28;20451;-46
2021/09/16 11:40:45;;;;;;;4.00;3.50;;;19.80;65.70;;;;;;4947247;28;21032;-46
2021/09/16 11:43:15;;;;;;;3.43;3.13;;;19.70;66.60;;;;;;4946539;28;20451;-46
2021/09/16 11:45:47;;;;;;;3.27;2.63;;;19.60;66.60;;;;;;4954763;28;20501;-46
2021/09/16 11:48:20;;;;;;;3.20;2.90;;;19.60;67.00;;;;;;4942949;29;20497;-46
2021/09/16 11:50:49;;;;;;;3.10;2.90;;;19.50;67.50;;;;;;4947486;28;20456;-46
2021/09/16 11:53:18;;;;;;;6.40;3.10;;;19.50;66.30;;;;;;4949212;28;20468;-46
2021/09/16 11:55:48;;;;;;;3.10;2.67;;;19.50;66.90;;;;;;4954648;28;20455;-46
2021/09/16 11:58:23;;;;;;;2.60;2.40;;;19.50;66.20;;;;;;4950135;29;20455;-46
2021/09/16 12:01:22;;;;;;;2.90;2.70;;;19.50;66.50;;;;;;4954274;28;21012;-46
2021/09/16 12:03:53;;;;;;;2.53;2.33;;;19.50;66.20;;;;;;4912456;29;20519;-46
2021/09/16 12:06:20;;;;;;;2.40;2.30;;;19.50;66.20;;;;;;4953518;28;20487;-46
2021/09/16 12:08:56;;;;;;;3.03;2.63;;;19.50;66.80;;;;;;4953842;28;20450;-46
2021/09/16 12:11:26;;;;;;;2.40;2.20;;;19.50;66.60;;;;;;4954307;29;20453;-46
2021/09/16 12:13:58;;;;;;;2.90;2.70;;;19.50;66.70;;;;;;4953478;28;20478;-46
2021/09/16 12:16:32;;;;;;;3.10;2.90;;;19.60;66.90;;;;;;4956433;28;20503;-46
2021/09/16 12:19:07;;;;;;;3.37;2.83;;;19.50;67.00;;;;;;4956276;29;20463;-46
2021/09/16 12:21:36;;;;;;;3.30;2.63;;;19.50;67.40;;;;;;4948159;28;20482;-45
2021/09/16 12:24:06;;;;;;;3.87;3.57;;;19.40;68.20;;;;;;4949040;28;20462;-45
2021/09/16 12:26:37;;;;;;;4.47;3.00;;;19.40;68.00;;;;;;4937632;29;20499;-45
2021/09/16 12:29:10;;;;;;;2.60;2.40;;;19.40;67.90;;;;;;4950961;28;20467;-45
2021/09/16 12:31:45;;;;;;;3.00;2.60;;;19.40;68.20;;;;;;4959943;28;20447;-45
2021/09/16 12:34:19;;;;;;;2.57;2.47;;;19.40;68.10;;;;;;4958638;28;20504;-45
2021/09/16 12:36:57;;;;;;;2.63;2.43;;;19.30;68.30;;;;;;4955242;28;20449;-45
2021/09/16 12:39:25;;;;;;;3.07;2.77;;;19.30;68.30;;;;;;4953399;28;20463;-45
2021/09/16 12:41:53;;;;;;;2.30;2.00;;;19.40;68.10;;;;;;4955593;28;20458;-45
2021/09/16 12:44:25;;;;;;;2.63;2.43;;;19.40;67.70;;;;;;4956141;28;20463;-45